| time (UTC) | temp F | wind direction | speed knots | gust knots | rain 1hr in | rain 24hr in | rain mn in | humidity % | barometer mb |
| 20260507014559 | 55 | 232 | 0.0 | 2.6 | 0.00 | 0.00 | 0.00 | 66 | 1042.7 |
| 20260507013054 | 55 | 196 | 0.0 | 0.9 | 0.00 | 0.00 | 0.00 | 65 | 1042.7 |
| 20260507011554 | 55 | 243 | 0.9 | 6.1 | 0.00 | 0.00 | 0.00 | 64 | 1042.7 |
| 20260507010104 | 55 | 195 | 0.0 | 1.7 | 0.00 | 0.00 | 0.00 | 64 | 1042.7 |
| 20260507004551 | 55 | 215 | 0.9 | 5.2 | 0.00 | 0.00 | 0.00 | 63 | 1042.7 |
| 20260507003051 | 55 | 234 | 1.7 | 6.1 | 0.00 | 0.00 | 0.00 | 63 | 1042.7 |
| 20260507001556 | 55 | 242 | 0.9 | 5.2 | 0.00 | 0.00 | 0.00 | 64 | 1042.7 |
| 20260507000049 | 56 | 217 | 2.6 | 5.2 | 0.00 | 0.00 | 0.00 | 62 | 1042.7 |
| 20260506234552 | 55 | 221 | 0.9 | 5.2 | 0.00 | 0.00 | 0.00 | 63 | 1042.7 |
| 20260506233048 | 55 | 227 | 1.7 | 6.1 | 0.00 | 0.00 | 0.00 | 62 | 1042.7 |
| 20260506231605 | 56 | 187 | 0.9 | 7.0 | 0.00 | 0.00 | 0.00 | 62 | 1042.7 |
| 20260506230104 | 56 | 198 | 2.6 | 7.8 | 0.00 | 0.00 | 0.00 | 61 | 1042.7 |
| 20260506224547 | 56 | 188 | 1.7 | 8.7 | 0.00 | 0.00 | 0.00 | 60 | 1042.7 |
| 20260506223046 | 56 | 178 | 0.9 | 7.8 | 0.00 | 0.00 | 0.00 | 59 | 1042.7 |
| 20260506221602 | 56 | 209 | 1.7 | 6.1 | 0.00 | 0.00 | 0.00 | 59 | 1042.7 |
| 20260506220100 | 56 | 162 | 2.6 | 7.0 | 0.00 | 0.00 | 0.00 | 59 | 1042.7 |
| 20260506214548 | 56 | 175 | 1.7 | 4.3 | 0.00 | 0.00 | 0.00 | 59 | 1042.7 |
| 20260506213100 | 57 | 178 | 2.6 | 6.1 | 0.00 | 0.00 | 0.00 | 58 | 1042.7 |
| 20260506211542 | 56 | 239 | 2.6 | 7.8 | 0.00 | 0.00 | 0.00 | 59 | 1042.7 |
| 20260506210053 | 56 | 221 | 0.9 | 5.2 | 0.00 | 0.00 | 0.00 | 60 | 1042.7 |
| 20260506204541 | 56 | 218 | 1.7 | 6.1 | 0.00 | 0.00 | 0.00 | 60 | 1042.7 |
| 20260506203039 | 57 | 198 | 2.6 | 6.1 | 0.00 | 0.00 | 0.00 | 60 | 1042.7 |
| 20260506201539 | 56 | 222 | 0.9 | 7.8 | 0.00 | 0.00 | 0.00 | 61 | 1042.7 |
| 20260506200036 | 55 | 193 | 2.6 | 12.2 | 0.00 | 0.00 | 0.00 | 61 | 1042.7 |
| 20260506194533 | 55 | 257 | 2.6 | 9.6 | 0.00 | 0.00 | 0.00 | 61 | 1042.7 |
| 20260506193031 | 55 | 184 | 1.7 | 7.0 | 0.00 | 0.00 | 0.00 | 62 | 1042.7 |
| 20260506191533 | 55 | 233 | 0.9 | 7.0 | 0.00 | 0.00 | 0.00 | 63 | 1042.7 |
| 20260506190030 | 54 | 207 | 0.9 | 7.0 | 0.00 | 0.00 | 0.00 | 64 | 1042.7 |
| 20260506184527 | 54 | 209 | 2.6 | 7.8 | 0.00 | 0.00 | 0.00 | 64 | 1042.7 |
| 20260506183023 | 54 | 159 | 0.9 | 9.6 | 0.00 | 0.00 | 0.00 | 66 | 1042.7 |
| 20260506181519 | 54 | 195 | 0.0 | 8.7 | 0.00 | 0.00 | 0.00 | 67 | 1042.7 |
| 20260506180023 | 53 | 207 | 0.0 | 4.3 | 0.00 | 0.00 | 0.00 | 69 | 1042.7 |
| 20260506174523 | 53 | 256 | 2.6 | 7.0 | 0.00 | 0.00 | 0.00 | 71 | 1042.7 |
| 20260506173015 | 53 | 269 | 0.9 | 2.6 | 0.00 | 0.00 | 0.00 | 72 | 1042.7 |
| 20260506171522 | 52 | 192 | 0.9 | 5.2 | 0.00 | 0.00 | 0.00 | 71 | 1042.7 |
| 20260506170013 | 52 | 188 | 0.9 | 4.3 | 0.00 | 0.00 | 0.00 | 71 | 1042.7 |
| 20260506164510 | 52 | 238 | 0.9 | 5.2 | 0.00 | 0.00 | 0.00 | 70 | 1042.7 |
| 20260506163009 | 52 | 193 | 0.9 | 3.5 | 0.00 | 0.00 | 0.00 | 70 | 1042.7 |
| 20260506161509 | 52 | 244 | 0.0 | 5.2 | 0.00 | 0.00 | 0.00 | 72 | 1042.7 |
| 20260506160010 | 52 | 213 | 0.0 | 5.2 | 0.00 | 0.00 | 0.00 | 72 | 1042.7 |
| 20260506154512 | 52 | 181 | 0.0 | 3.5 | 0.00 | 0.00 | 0.00 | 73 | 1042.7 |
| 20260506153007 | 52 | 184 | 0.9 | 6.1 | 0.00 | 0.00 | 0.00 | 73 | 1042.7 |
| 20260506151507 | 52 | 238 | 0.0 | 1.7 | 0.00 | 0.00 | 0.00 | 73 | 1042.7 |
| 20260506150006 | 52 | 228 | 0.0 | 5.2 | 0.00 | 0.00 | 0.00 | 73 | 1042.7 |
| 20260506144505 | 52 | 196 | 0.0 | 3.5 | 0.00 | 0.00 | 0.00 | 73 | 1042.7 |
| 20260506143006 | 52 | 180 | 0.0 | 4.3 | 0.00 | 0.00 | 0.00 | 73 | 1042.7 |
| 20260506141504 | 52 | 174 | 0.0 | 1.7 | 0.00 | 0.00 | 0.00 | 73 | 1042.7 |
| 20260506140007 | 51 | 190 | 0.0 | 1.7 | 0.00 | 0.00 | 0.00 | 72 | 1042.7 |
| 20260506134502 | 52 | 215 | 0.9 | 7.0 | 0.00 | 0.00 | 0.00 | 72 | 1042.7 |
| 20260506133102 | 52 | 229 | 0.0 | 0.0 | 0.00 | 0.00 | 0.00 | 72 | 1042.7 |
| 20260506131617 | 52 | 221 | 0.0 | 0.0 | 0.00 | 0.00 | 0.00 | 72 | 1042.7 |
| 20260506131503 | 52 | 206 | 0.0 | 0.0 | 0.00 | 0.00 | 0.00 | 72 | 1042.7 |
| 20260506130057 | 52 | 230 | 0.0 | 4.3 | 0.00 | 0.00 | 0.00 | 72 | 1042.7 |
| 20260506124557 | 52 | 216 | 0.0 | 1.7 | 0.00 | 0.00 | 0.00 | 72 | 1042.7 |
| 20260506123057 | 52 | 199 | 0.0 | 4.3 | 0.00 | 0.00 | 0.00 | 72 | 1042.7 |
| 20260506121559 | 52 | 201 | 0.0 | 0.9 | 0.00 | 0.00 | 0.00 | 72 | 1042.7 |
| 20260506120056 | 52 | 244 | 1.7 | 6.1 | 0.00 | 0.00 | 0.00 | 72 | 1042.7 |
| 20260506114558 | 52 | 193 | 0.0 | 2.6 | 0.00 | 0.00 | 0.00 | 72 | 1042.7 |
| 20260506113056 | 52 | 238 | 0.0 | 0.0 | 0.00 | 0.00 | 0.00 | 72 | 1042.7 |
| 20260506111554 | 52 | 215 | 0.0 | 0.0 | 0.00 | 0.00 | 0.00 | 72 | 1042.7 |
| 20260506110053 | 51 | 217 | 0.0 | 2.6 | 0.00 | 0.00 | 0.00 | 72 | 1042.7 |
| 20260506104556 | 52 | 180 | 0.9 | 6.1 | 0.00 | 0.00 | 0.00 | 72 | 1042.7 |
| 20260506103054 | 52 | 188 | 1.7 | 7.0 | 0.00 | 0.00 | 0.00 | 72 | 1042.7 |
| 20260506101551 | 52 | 180 | 0.9 | 3.5 | 0.00 | 0.00 | 0.00 | 72 | 1042.7 |
| 20260506100104 | 52 | 222 | 0.0 | 2.6 | 0.00 | 0.00 | 0.00 | 72 | 1042.7 |
| 20260506094550 | 51 | 242 | 0.0 | 0.0 | 0.00 | 0.00 | 0.00 | 72 | 1042.7 |
| 20260506093048 | 51 | 242 | 0.0 | 0.9 | 0.00 | 0.00 | 0.00 | 72 | 1042.7 |
| 20260506091552 | 51 | 242 | 0.0 | 0.0 | 0.00 | 0.00 | 0.00 | 72 | 1042.7 |
| 20260506090047 | 52 | 242 | 0.0 | 0.0 | 0.00 | 0.00 | 0.00 | 72 | 1042.7 |
| 20260506084546 | 52 | 242 | 0.0 | 0.0 | 0.00 | 0.00 | 0.00 | 72 | 1042.7 |
| 20260506083045 | 52 | 242 | 0.0 | 0.0 | 0.00 | 0.00 | 0.00 | 72 | 1042.7 |
| 20260506081545 | 52 | 242 | 0.0 | 0.0 | 0.00 | 0.00 | 0.00 | 72 | 1042.7 |
| 20260506073039 | 53 | 242 | 0.0 | 0.0 | 0.00 | 0.00 | 0.00 | 70 | 1042.7 |
| 20260506071538 | 53 | 242 | 0.0 | 0.0 | 0.00 | 0.00 | 0.00 | 69 | 1042.7 |
| 20260506061533 | 56 | 242 | 0.0 | 0.0 | 0.00 | 0.00 | 0.00 | 66 | 1042.7 |
| 20260506044539 | 57 | 311 | 0.0 | 0.0 | 0.00 | 0.00 | 0.00 | 66 | 1042.7 |
| 20260506043029 | 57 | 311 | 0.0 | 0.0 | 0.00 | 0.00 | 0.00 | 66 | 1042.7 |
| 20260506041529 | 58 | 311 | 0.0 | 0.0 | 0.00 | 0.00 | 0.00 | 64 | 1042.7 |
| 20260506040028 | 58 | 311 | 0.0 | 0.0 | 0.00 | 0.00 | 0.00 | 63 | 1042.7 |
| 20260506034529 | 59 | 311 | 0.0 | 0.0 | 0.00 | 0.00 | 0.00 | 62 | 1042.7 |
| 20260506033034 | 60 | 311 | 0.0 | 0.0 | 0.00 | 0.00 | 0.00 | 61 | 1042.7 |
| 20260506031536 | 61 | 311 | 0.0 | 0.0 | 0.00 | 0.00 | 0.00 | 60 | 1042.7 |
| 20260506030051 | 61 | 311 | 0.0 | 0.9 | 0.00 | 0.00 | 0.00 | 59 | 1042.7 |
| 20260506024532 | 62 | 130 | 0.0 | 0.0 | 0.00 | 0.00 | 0.00 | 58 | 1042.7 |
| 20260506023026 | 62 | 142 | 0.0 | 0.9 | 0.00 | 0.00 | 0.00 | 57 | 1042.7 |
| 20260506021525 | 62 | 142 | 0.0 | 3.5 | 0.00 | 0.00 | 0.00 | 57 | 1042.7 |
| 20260506020024 | 63 | 184 | 0.0 | 1.7 | 0.00 | 0.00 | 0.00 | 56 | 1042.7 |